Time;durP1;ratioP1;P1;durP2;ratioP2;P2;SDS_P1;SDS_P2;PMS_P1;PMS_P2;Temp;Humidity;BMP_temperature;BMP_pressure;BME280_temperature;BME280_humidity;BME280_pressure;Samples;Min_cycle;Max_cycle;Signal;HPM_P1;HPM_P2
2022/01/30 00:00:36;;;;;;;;;7.00;6.25;;;;;11.23;77.35;102455.34;5055451;28;45629;-81
2022/01/30 00:03:04;;;;;;;;;3.00;3.00;;;;;11.20;77.36;102459.88;5055210;28;45689;-80
2022/01/30 00:05:30;;;;;;;;;4.00;4.00;;;;;11.21;77.27;102472.94;5054773;28;46391;-81
2022/01/30 00:07:56;;;;;;;;;4.00;4.00;;;;;11.25;77.12;102484.13;5054889;28;45664;-81
2022/01/30 00:10:21;;;;;;;;;3.50;3.00;;;;;11.25;77.24;102479.75;5055780;28;45461;-79
2022/01/30 00:12:54;;;;;;;;;3.25;3.00;;;;;11.24;77.32;102467.53;5055175;28;45686;-80
2022/01/30 00:15:34;;;;;;;;;5.50;3.50;;;;;11.13;77.21;102445.31;5054650;28;46054;-79
2022/01/30 00:18:10;;;;;;;;;3.00;3.00;;;;;11.19;77.20;102472.13;5055089;28;45591;-79
2022/01/30 00:20:36;;;;;;;;;3.00;3.00;;;;;11.19;77.11;102473.91;5055558;28;45594;-79
2022/01/30 00:25:44;;;;;;;;;5.00;4.00;;;;;11.14;77.45;102458.38;5054811;28;46284;-79
2022/01/30 00:28:12;;;;;;;;;4.00;3.00;;;;;11.16;77.23;102460.94;5070580;28;45834;-77
2022/01/30 00:30:38;;;;;;;;;3.00;3.00;;;;;11.15;77.25;102469.72;5054899;28;45825;-78
2022/01/30 00:33:04;;;;;;;;;4.00;3.00;;;;;11.17;77.41;102462.66;5055029;28;46417;-78
2022/01/30 00:35:33;;;;;;;;;3.25;3.00;;;;;11.15;77.48;102460.09;5069593;28;48238;-79
2022/01/30 00:37:58;;;;;;;;;7.00;6.00;;;;;11.12;77.36;102456.75;5054640;28;45813;-78
2022/01/30 00:40:24;;;;;;;;;6.50;4.00;;;;;11.08;77.41;102447.28;5054656;28;45607;-80
2022/01/30 00:42:49;;;;;;;;;5.25;4.00;;;;;11.10;77.71;102451.56;5054402;28;45736;-79
2022/01/30 00:45:15;;;;;;;;;4.00;4.00;;;;;11.05;77.49;102442.19;5032188;28;47228;-79
2022/01/30 00:47:40;;;;;;;;;4.00;4.00;;;;;11.13;77.52;102442.69;5034582;28;46015;-80
2022/01/30 00:50:06;;;;;;;;;2.75;2.50;;;;;11.11;77.39;102450.66;5034767;28;45523;-79
2022/01/30 00:52:32;;;;;;;;;4.00;4.00;;;;;11.00;77.61;102428.44;5033981;28;45556;-79
2022/01/30 00:54:58;;;;;;;;;3.75;3.00;;;;;11.08;77.40;102447.28;5033619;28;46376;-80
2022/01/30 00:57:23;;;;;;;;;3.00;2.75;;;;;11.00;77.55;102436.28;5034494;28;45591;-80
2022/01/30 00:59:49;;;;;;;;;3.25;3.00;;;;;11.02;77.67;102440.53;5033439;28;45880;-81
2022/01/30 01:02:16;;;;;;;;;3.25;3.00;;;;;10.88;77.59;102414.94;5034265;28;45503;-80
2022/01/30 01:04:42;;;;;;;;;3.00;2.00;;;;;11.04;77.35;102438.72;5034263;28;45621;-79
2022/01/30 01:07:14;;;;;;;;;3.00;2.75;;;;;10.99;77.46;102418.84;5034763;28;45537;-81
2022/01/30 01:09:41;;;;;;;;;1.75;1.75;;;;;10.99;77.56;102427.56;5034508;28;45575;-81
2022/01/30 01:25:46;;;;;;;;;4.00;4.00;;;;;10.91;77.53;102417.41;5033813;28;45788;-79
2022/01/30 01:28:11;;;;;;;;;3.50;3.50;;;;;10.93;77.46;102414.72;5034206;28;45655;-80
2022/01/30 01:30:37;;;;;;;;;5.50;3.50;;;;;10.90;77.46;102413.06;5033194;28;45860;-79
2022/01/30 01:33:03;;;;;;;;;5.25;5.00;;;;;10.87;77.31;102410.59;5034734;28;45702;-80
2022/01/30 01:35:29;;;;;;;;;6.25;6.00;;;;;10.84;77.41;102408.13;5033614;28;47333;-79
2022/01/30 01:37:55;;;;;;;;;7.00;6.00;;;;;10.79;77.67;102411.84;5035551;28;45452;-81
2022/01/30 01:40:21;;;;;;;;;3.50;3.00;;;;;10.84;77.32;102409.88;5033293;28;45541;-78
2022/01/30 01:42:47;;;;;;;;;5.00;4.00;;;;;10.84;77.39;102421.22;5033776;28;46380;-78
2022/01/30 01:45:18;;;;;;;;;5.25;4.25;;;;;10.77;77.57;102411.91;5037153;28;46194;-78
2022/01/30 01:47:44;;;;;;;;;7.00;6.75;;;;;10.78;77.25;102415.41;5054193;28;45642;-80
2022/01/30 01:50:16;;;;;;;;;3.75;3.75;;;;;10.84;77.53;102421.22;5054015;28;45409;-78
2022/01/30 01:52:42;;;;;;;;;5.00;4.50;;;;;10.83;77.38;102416.91;5054006;28;45901;-79
2022/01/30 01:55:07;;;;;;;;;7.50;6.75;;;;;10.80;77.37;102401.28;5053846;28;46192;-79
2022/01/30 01:57:33;;;;;;;;;6.00;5.75;;;;;10.85;77.34;102425.53;5053852;28;45666;-78
2022/01/30 01:59:59;;;;;;;;;7.00;6.00;;;;;10.80;77.30;102410.91;5053957;28;45420;-79
2022/01/30 02:02:26;;;;;;;;;6.25;6.25;;;;;10.87;77.36;102426.34;5053844;28;45432;-79
2022/01/30 02:04:51;;;;;;;;;6.50;3.75;;;;;10.83;77.42;102402.94;5055224;28;45995;-79
2022/01/30 02:09:42;;;;;;;;;7.75;6.00;;;;;10.84;77.30;102420.38;5057255;28;45866;-80
2022/01/30 02:12:16;;;;;;;;;7.75;5.75;;;;;10.83;77.33;102416.03;5057399;28;45569;-78
2022/01/30 02:26:00;;;;;;;;;6.25;5.00;;;;;10.89;77.18;102390.41;5057054;28;46150;-78
2022/01/30 02:28:29;;;;;;;;;6.00;4.00;;;;;10.93;77.06;102393.75;5055218;28;45638;-79
2022/01/30 02:31:08;;;;;;;;;5.50;3.50;;;;;10.97;77.09;102403.16;5059921;28;45583;-76
2022/01/30 02:33:34;;;;;;;;;8.00;6.25;;;;;10.97;77.19;102407.56;5058647;28;46602;-80
2022/01/30 02:36:13;;;;;;;;;6.25;4.25;;;;;10.83;77.23;102389.81;5056893;28;46446;-78
2022/01/30 02:38:38;;;;;;;;;6.00;4.00;;;;;10.91;77.06;102393.81;5056605;28;45679;-79
2022/01/30 02:41:07;;;;;;;;;6.00;4.00;;;;;10.84;77.14;102383.66;5056529;28;45894;-80
2022/01/30 02:43:38;;;;;;;;;6.75;5.25;;;;;10.64;77.03;102358.31;5072040;28;48643;-78
2022/01/30 02:48:50;;;;;;;;;6.00;4.00;;;;;10.93;77.13;102412.97;5056242;28;45639;-77
2022/01/30 02:51:19;;;;;;;;;7.50;6.00;;;;;10.91;77.25;102398.19;5056178;28;45602;-79
2022/01/30 02:53:54;;;;;;;;;8.00;6.25;;;;;10.92;77.18;102405.16;5056432;28;46206;-78
2022/01/30 02:56:20;;;;;;;;;10.00;8.00;;;;;10.94;76.98;102413.81;5056200;28;45867;-80
2022/01/30 02:58:45;;;;;;;;;4.00;3.00;;;;;10.92;77.04;102413.00;5054938;28;45703;-80
2022/01/30 03:01:11;;;;;;;;;7.00;6.50;;;;;10.82;76.99;102390.75;5056044;28;45816;-80
2022/01/30 03:03:36;;;;;;;;;6.25;4.00;;;;;10.77;77.14;102395.34;5056627;28;45525;-80
2022/01/30 03:06:01;;;;;;;;;8.50;6.00;;;;;10.77;77.02;102384.84;5055959;28;46981;-79
2022/01/30 03:08:27;;;;;;;;;7.50;6.50;;;;;10.91;77.05;102411.31;5056019;28;45527;-80
2022/01/30 03:10:54;;;;;;;;;7.50;6.75;;;;;10.90;77.02;102415.69;5056571;28;45467;-80
2022/01/30 03:13:19;;;;;;;;;9.25;8.75;;;;;10.67;77.11;102370.44;5058087;28;46233;-81
2022/01/30 03:15:45;;;;;;;;;6.50;6.25;;;;;10.41;76.92;102335.72;5057479;28;45569;-80
2022/01/30 03:18:10;;;;;;;;;7.75;6.75;;;;;10.69;76.96;102373.84;5056865;28;45573;-79
2022/01/30 03:20:41;;;;;;;;;8.75;6.00;;;;;10.31;77.12;102321.28;5055776;28;45824;-79
2022/01/30 03:23:07;;;;;;;;;6.75;6.75;;;;;10.88;77.02;102414.06;5071139;28;47615;-79
2022/01/30 03:25:33;;;;;;;;;8.00;5.50;;;;;10.90;77.11;102413.06;5056095;28;46149;-79
2022/01/30 03:28:01;;;;;;;;;8.00;6.75;;;;;10.91;76.79;102412.16;5055824;28;45636;-80
2022/01/30 03:30:29;;;;;;;;;6.75;4.00;;;;;10.85;76.90;102404.56;5038048;28;45611;-80
2022/01/30 03:32:55;;;;;;;;;9.25;7.00;;;;;10.91;76.90;102420.03;5056128;28;46478;-80
2022/01/30 03:35:21;;;;;;;;;9.50;7.00;;;;;10.92;76.83;102429.59;5055584;28;46028;-80
2022/01/30 03:37:46;;;;;;;;;8.00;7.25;;;;;10.93;76.85;102418.19;5055714;28;45484;-78
2022/01/30 03:40:12;;;;;;;;;8.00;7.00;;;;;10.96;76.86;102416.38;5055708;28;45627;-78
2022/01/30 03:42:37;;;;;;;;;12.50;8.25;;;;;10.97;76.83;102431.16;5055608;28;47186;-79
2022/01/30 03:45:04;;;;;;;;;8.00;8.00;;;;;10.89;77.04;102407.91;5037563;28;47265;-80
2022/01/30 03:47:29;;;;;;;;;12.00;8.50;;;;;10.67;76.72;102352.09;5055329;28;45709;-80
2022/01/30 03:49:55;;;;;;;;;9.00;7.50;;;;;10.93;76.94;102404.22;5055598;28;45708;-82
2022/01/30 03:52:23;;;;;;;;;12.00;6.50;;;;;10.90;76.90;102391.28;5055623;28;45602;-81
2022/01/30 03:54:51;;;;;;;;;9.00;8.00;;;;;11.00;76.71;102402.19;5055480;28;45988;-80
2022/01/30 03:57:24;;;;;;;;;7.50;6.50;;;;;10.86;76.35;102384.44;5055753;28;45669;-79
2022/01/30 03:59:49;;;;;;;;;9.25;7.50;;;;;11.00;76.57;102407.44;5037365;28;45531;-78
2022/01/30 04:02:15;;;;;;;;;6.50;6.00;;;;;10.83;76.34;102384.59;5055594;28;45677;-78
2022/01/30 04:04:40;;;;;;;;;6.25;6.00;;;;;10.98;76.69;102410.13;5054979;28;46218;-80
2022/01/30 04:07:09;;;;;;;;;8.50;7.25;;;;;10.88;76.46;102393.94;5055486;28;45607;-80
2022/01/30 04:09:35;;;;;;;;;9.25;8.00;;;;;10.93;76.22;102406.84;5055721;28;45721;-80
2022/01/30 04:12:01;;;;;;;;;8.75;6.75;;;;;10.95;76.24;102418.13;5055329;28;45806;-80
2022/01/30 04:14:30;;;;;;;;;8.50;7.00;;;;;10.92;76.08;102415.63;5055381;28;46671;-80
2022/01/30 04:16:59;;;;;;;;;6.75;5.00;;;;;10.69;76.10;102374.69;5070990;28;45653;-79
2022/01/30 04:19:24;;;;;;;;;2.00;2.00;;;;;10.75;75.65;102389.28;5055234;28;45868;-80
2022/01/30 04:22:02;;;;;;;;;4.00;2.00;;;;;10.90;75.51;102413.06;5036842;28;48284;-81
2022/01/30 04:24:27;;;;;;;;;3.50;2.00;;;;;10.71;75.06;102385.09;5055077;28;46938;-80
2022/01/30 04:26:55;;;;;;;;;3.75;2.00;;;;;10.71;74.91;102393.81;5055854;28;45727;-80
2022/01/30 04:29:23;;;;;;;;;5.00;3.00;;;;;10.36;74.54;102337.69;5054246;28;45595;-79
2022/01/30 04:31:52;;;;;;;;;3.00;2.00;;;;;10.58;74.33;102383.94;5037854;28;47370;-81
2022/01/30 04:34:20;;;;;;;;;2.25;2.00;;;;;10.57;74.11;102369.97;5055748;28;46553;-81
2022/01/30 04:37:01;;;;;;;;;3.00;1.50;;;;;10.73;73.64;102405.09;5055590;28;45555;-80
2022/01/30 04:59:11;;;;;;;;;1.00;1.00;;;;;10.35;70.45;102391.00;5065212;28;45898;-79
2022/01/30 05:01:57;;;;;;;;;1.00;0.00;;;;;10.05;70.30;102352.91;5065654;28;45610;-80
2022/01/30 05:04:50;;;;;;;;;2.75;1.00;;;;;10.61;70.18;102437.06;5044404;28;45921;-79
2022/01/30 05:09:44;;;;;;;;;3.25;1.00;;;;;10.43;69.66;102416.88;5072872;28;45079;-80
2022/01/30 05:12:12;;;;;;;;;1.25;1.00;;;;;10.59;69.97;102449.38;5063478;28;45551;-80
2022/01/30 05:18:00;;;;;;;;;2.00;1.00;;;;;10.56;69.36;102452.13;5075255;28;45448;-80
2022/01/30 05:20:25;;;;;;;;;2.75;1.00;;;;;10.55;69.23;102454.81;5076782;28;45586;-79
2022/01/30 05:23:23;;;;;;;;;4.75;1.50;;;;;10.56;69.12;102452.13;5068682;28;45495;-80
2022/01/30 05:26:10;;;;;;;;;3.00;1.50;;;;;10.54;68.59;102448.72;5043501;28;48528;-80
2022/01/30 05:28:45;;;;;;;;;3.50;1.25;;;;;10.01;68.85;102372.28;5060432;28;46030;-81
2022/01/30 05:34:39;;;;;;;;;1.25;0.00;;;;;10.47;68.51;102455.16;5059892;28;45534;-79
2022/01/30 05:37:08;;;;;;;;;3.00;1.00;;;;;10.52;68.49;102475.00;5036779;28;48664;-79
2022/01/30 05:39:44;;;;;;;;;2.00;1.00;;;;;10.20;68.51;102403.88;5038013;28;48101;-78
2022/01/30 05:42:19;;;;;;;;;1.00;0.00;;;;;10.29;68.36;102434.94;5040936;28;45789;-80
2022/01/30 05:50:52;;;;;;;;;3.00;1.00;;;;;10.46;67.72;102477.03;5057870;28;45894;-78
2022/01/30 05:53:17;;;;;;;;;2.00;1.00;;;;;10.42;67.30;102476.28;5057471;28;45630;-79
2022/01/30 05:55:42;;;;;;;;;1.50;1.25;;;;;10.37;67.37;102464.28;5056864;28;45899;-79
2022/01/30 05:58:11;;;;;;;;;1.00;0.75;;;;;10.38;67.15;102479.94;5057337;28;46249;-80
2022/01/30 06:00:38;;;;;;;;;2.00;1.00;;;;;10.36;67.22;102471.31;5039377;28;46938;-80
2022/01/30 06:03:03;;;;;;;;;1.00;1.00;;;;;10.32;66.73;102480.19;5057624;28;46034;-79
2022/01/30 06:05:29;;;;;;;;;1.75;1.75;;;;;10.17;66.98;102461.59;5057390;28;45537;-79
2022/01/30 06:07:56;;;;;;;;;3.25;2.00;;;;;10.25;66.85;102477.88;5057188;28;45649;-79
2022/01/30 06:10:25;;;;;;;;;2.00;1.00;;;;;10.24;66.60;102474.41;5057046;28;46350;-79
2022/01/30 06:12:50;;;;;;;;;2.50;1.25;;;;;10.27;66.76;102489.13;5057077;28;45673;-79
2022/01/30 06:15:16;;;;;;;;;1.00;1.00;;;;;10.26;66.76;102488.28;5056940;28;45554;-79
2022/01/30 06:18:05;;;;;;;;;1.00;1.00;;;;;10.13;66.78;102463.47;5055623;28;47541;-78
2022/01/30 06:20:30;;;;;;;;;3.00;1.00;;;;;10.04;66.74;102454.19;4955509;28;45933;-77
2022/01/30 06:22:55;;;;;;;;;1.75;1.00;;;;;10.24;66.73;102491.88;4955021;28;45589;-79
2022/01/30 06:25:21;;;;;;;;;0.50;0.50;;;;;10.27;66.66;102504.84;4955367;28;45935;-77
2022/01/30 06:27:46;;;;;;;;;3.00;1.00;;;;;10.28;66.63;102515.28;4955918;28;45675;-79
2022/01/30 06:30:12;;;;;;;;;2.00;2.00;;;;;10.28;66.56;102503.94;4955515;28;46040;-79
2022/01/30 06:32:37;;;;;;;;;0.75;0.50;;;;;10.28;66.79;102517.03;4955059;28;45577;-78
2022/01/30 06:35:03;;;;;;;;;1.00;1.00;;;;;10.27;66.56;102510.09;4955934;28;45644;-79
2022/01/30 06:37:30;;;;;;;;;2.00;2.00;;;;;10.26;66.22;102511.00;4955749;28;45907;-79
2022/01/30 06:39:55;;;;;;;;;2.00;1.00;;;;;10.02;66.06;102471.75;4955064;28;46358;-77
2022/01/30 06:42:21;;;;;;;;;1.00;0.00;;;;;10.18;66.26;102497.38;4955358;28;45672;-78
2022/01/30 06:44:47;;;;;;;;;5.00;2.00;;;;;10.19;65.88;102506.94;4955726;28;45632;-77
2022/01/30 06:50:34;;;;;;;;;2.00;1.25;;;;;10.09;65.75;102499.38;4954634;28;45793;-78
2022/01/30 06:52:59;;;;;;;;;2.50;1.75;;;;;10.07;65.62;102498.59;4954861;28;45581;-79
2022/01/30 06:55:25;;;;;;;;;2.00;0.00;;;;;10.06;65.76;102503.88;4955607;28;45773;-79
2022/01/30 06:57:50;;;;;;;;;1.50;1.00;;;;;10.09;65.50;102509.03;5019446;28;46442;-79
2022/01/30 07:00:16;;;;;;;;;2.25;1.50;;;;;10.04;65.65;102500.50;5056153;28;45645;-78
2022/01/30 07:06:03;;;;;;;;;0.25;0.25;;;;;10.04;65.45;102511.78;5056256;28;45603;-78
2022/01/30 07:08:28;;;;;;;;;2.50;1.00;;;;;10.01;65.33;102504.06;5056119;28;45682;-78
2022/01/30 07:10:54;;;;;;;;;2.50;1.00;;;;;9.98;65.27;102506.81;5056147;28;46128;-78
2022/01/30 07:13:19;;;;;;;;;1.00;1.00;;;;;9.97;65.23;102510.34;5055976;28;45660;-78
2022/01/30 07:15:44;;;;;;;;;1.25;0.00;;;;;9.88;65.31;102492.34;5056205;28;45507;-78
2022/01/30 07:18:10;;;;;;;;;1.25;1.00;;;;;9.95;65.22;102508.69;5055776;28;47502;-79
2022/01/30 07:20:36;;;;;;;;;2.25;1.25;;;;;9.93;65.22;102511.34;5055919;28;45604;-75
2022/01/30 07:23:01;;;;;;;;;2.00;1.00;;;;;9.98;65.54;102519.06;5056074;28;45569;-78
2022/01/30 07:25:27;;;;;;;;;2.25;1.25;;;;;9.94;65.35;102518.31;5055769;28;45889;-79
2022/01/30 07:27:52;;;;;;;;;2.00;1.00;;;;;9.91;65.44;102517.56;5055874;28;45709;-78
2022/01/30 07:30:18;;;;;;;;;3.00;2.00;;;;;9.95;65.17;102533.09;5055765;28;45661;-79
2022/01/30 07:36:06;;;;;;;;;2.00;2.00;;;;;9.91;65.33;102543.75;5055826;28;45883;-79
2022/01/30 07:38:32;;;;;;;;;2.25;1.25;;;;;9.90;65.24;102552.50;5055752;28;45766;-79
2022/01/30 07:40:57;;;;;;;;;3.50;1.00;;;;;9.73;65.34;102537.41;5055589;28;45642;-78
2022/01/30 07:43:23;;;;;;;;;1.00;1.00;;;;;9.58;65.02;102522.28;5055934;28;45709;-79
2022/01/30 07:45:48;;;;;;;;;2.75;1.25;;;;;9.79;65.03;102558.16;5055389;28;45847;-78
2022/01/30 07:51:35;;;;;;;;;2.00;2.00;;;;;9.71;65.06;102565.44;5055396;28;45879;-78
2022/01/30 07:54:00;;;;;;;;;1.00;1.00;;;;;9.66;65.33;102555.09;5037495;28;45610;-76
2022/01/30 07:56:26;;;;;;;;;2.00;1.00;;;;;9.68;65.20;102568.16;5056082;28;45800;-77
2022/01/30 07:58:51;;;;;;;;;5.50;2.00;;;;;9.61;65.15;102558.78;5055805;28;45576;-78
2022/01/30 08:01:17;;;;;;;;;2.00;2.00;;;;;9.61;65.23;102566.66;5055493;28;45924;-78
2022/01/30 08:03:42;;;;;;;;;1.50;1.50;;;;;9.62;65.11;102570.97;5037438;28;45807;-78
2022/01/30 08:06:07;;;;;;;;;2.25;1.25;;;;;9.64;65.35;102577.88;5055435;28;45860;-78
2022/01/30 08:08:33;;;;;;;;;6.25;1.00;;;;;9.59;65.20;102571.09;5055182;28;46508;-78
2022/01/30 08:10:58;;;;;;;;;4.75;2.00;;;;;9.63;65.21;102577.94;5070599;28;46397;-78
2022/01/30 08:13:24;;;;;;;;;2.25;1.75;;;;;9.62;65.30;102581.44;5055983;28;45500;-80
2022/01/30 08:15:49;;;;;;;;;2.00;1.00;;;;;9.62;65.00;102589.28;5057376;28;45496;-82
2022/01/30 08:21:36;;;;;;;;;2.50;2.00;;;;;9.56;65.33;102582.50;5056661;28;45701;-82
2022/01/30 08:24:02;;;;;;;;;4.00;2.00;;;;;9.52;65.06;102577.44;5056986;28;45649;-80
2022/01/30 08:26:27;;;;;;;;;4.75;1.00;;;;;9.55;65.12;102569.50;5057444;28;45586;-84
2022/01/30 08:28:53;;;;;;;;;1.00;1.00;;;;;9.56;65.23;102579.91;5056651;28;46501;-81
2022/01/30 08:31:18;;;;;;;;;1.00;0.00;;;;;9.52;65.22;102565.22;5056677;28;46064;-83
2022/01/30 08:37:07;;;;;;;;;2.25;1.00;;;;;9.56;65.03;102564.19;5055237;28;45737;-79
2022/01/30 08:39:34;;;;;;;;;2.75;2.50;;;;;9.63;65.01;102576.16;5055272;28;45576;-81
2022/01/30 08:42:00;;;;;;;;;2.00;1.50;;;;;9.64;65.45;102569.16;5055101;28;46085;-81
2022/01/30 08:44:26;;;;;;;;;4.00;2.00;;;;;9.70;65.12;102574.19;5056957;28;45690;-82
2022/01/30 08:46:51;;;;;;;;;2.00;1.00;;;;;9.68;64.75;102571.63;5038227;28;46017;-81
2022/01/30 08:49:16;;;;;;;;;4.25;2.00;;;;;9.68;64.71;102570.75;5035783;28;46543;-84
2022/01/30 08:51:43;;;;;;;;;1.00;1.00;;;;;9.73;65.03;102581.91;5033820;28;45598;-80
2022/01/30 08:54:08;;;;;;;;;1.75;1.00;;;;;9.71;64.80;102570.66;5033879;28;45935;-78
2022/01/30 08:56:34;;;;;;;;;2.50;2.00;;;;;9.63;64.50;102572.69;5034035;28;45607;-78
2022/01/30 08:58:59;;;;;;;;;2.50;1.50;;;;;9.65;64.32;102576.13;5036289;28;45502;-80
2022/01/30 09:01:25;;;;;;;;;1.00;1.00;;;;;9.62;64.61;102565.75;5036693;28;45786;-80
2022/01/30 09:07:12;;;;;;;;;1.25;1.00;;;;;9.72;64.17;102590.66;5032094;28;45586;-78
2022/01/30 09:09:37;;;;;;;;;3.25;2.00;;;;;9.72;64.39;102589.84;5033708;28;45492;-78
2022/01/30 09:12:03;;;;;;;;;1.00;1.00;;;;;9.73;64.15;102578.44;5033789;28;45530;-79
2022/01/30 09:14:29;;;;;;;;;2.00;1.00;;;;;9.69;64.32;102572.47;5034082;28;45534;-78
2022/01/30 09:16:55;;;;;;;;;3.00;1.75;;;;;9.77;64.07;102574.81;5037478;28;45835;-78
2022/01/30 09:19:21;;;;;;;;;4.50;2.00;;;;;9.75;64.29;102571.41;5037495;28;45625;-79
2022/01/30 09:21:48;;;;;;;;;2.25;1.00;;;;;9.76;64.10;102575.72;5035685;28;46043;-78
2022/01/30 09:24:14;;;;;;;;;6.00;3.00;;;;;9.75;64.11;102580.09;5037272;28;46058;-77
2022/01/30 09:26:40;;;;;;;;;2.25;1.75;;;;;9.85;64.07;102588.47;5037471;28;45492;-79
2022/01/30 09:29:05;;;;;;;;;2.00;2.00;;;;;9.87;64.01;102592.75;5037108;28;46395;-78
2022/01/30 09:31:30;;;;;;;;;4.50;1.50;;;;;9.91;64.15;102601.34;5037287;28;47386;-77
2022/01/30 09:37:17;;;;;;;;;1.00;1.00;;;;;9.92;64.05;102588.22;5037136;28;45508;-79
2022/01/30 09:39:44;;;;;;;;;2.00;1.75;;;;;9.95;63.80;102593.31;5036707;28;47414;-79
2022/01/30 09:42:09;;;;;;;;;2.75;2.00;;;;;9.98;63.92;102600.22;5036808;28;46639;-81
2022/01/30 09:44:39;;;;;;;;;2.00;1.00;;;;;9.99;63.88;102597.53;5036937;28;45642;-78
2022/01/30 09:47:16;;;;;;;;;3.25;1.75;;;;;10.02;63.57;102591.34;5055388;28;45769;-78
2022/01/30 09:49:47;;;;;;;;;2.00;2.00;;;;;10.04;63.65;102600.00;5055858;28;47372;-77
2022/01/30 09:52:12;;;;;;;;;3.00;2.25;;;;;10.03;63.54;102587.81;5038624;28;46844;-78
2022/01/30 09:54:38;;;;;;;;;2.00;1.25;;;;;10.08;63.85;102593.75;5057112;28;45658;-78
2022/01/30 09:57:04;;;;;;;;;4.00;0.25;;;;;10.07;63.70;102590.25;5057173;28;45529;-76
2022/01/30 09:59:30;;;;;;;;;2.75;1.00;;;;;10.10;63.42;102591.91;5056454;28;46745;-78
2022/01/30 10:01:55;;;;;;;;;6.50;2.00;;;;;10.17;63.47;102593.41;5056860;28;45688;-78
2022/01/30 10:07:51;;;;;;;;;2.25;2.00;;;;;10.22;63.46;102603.72;5056800;28;45484;-78
2022/01/30 10:10:21;;;;;;;;;1.75;1.75;;;;;10.22;63.23;102601.94;5056666;28;45542;-78
2022/01/30 10:13:29;;;;;;;;;2.00;1.00;;;;;10.18;63.31;102592.50;5056829;28;46253;-78
2022/01/30 10:15:57;;;;;;;;;6.25;3.00;;;;;10.18;63.29;102596.91;4955124;28;45546;-80
2022/01/30 10:18:26;;;;;;;;;2.25;2.00;;;;;10.20;62.94;102595.94;4955344;28;45919;-78
2022/01/30 10:20:52;;;;;;;;;5.25;3.00;;;;;10.22;63.08;102596.72;4955107;28;47325;-78
2022/01/30 10:23:30;;;;;;;;;4.00;2.00;;;;;10.16;63.05;102588.19;4955592;28;45829;-79
2022/01/30 10:25:55;;;;;;;;;2.00;1.25;;;;;10.22;63.10;102599.34;4954006;28;45576;-79
2022/01/30 10:28:25;;;;;;;;;3.25;2.00;;;;;10.23;62.92;102598.44;4955538;28;45716;-79
2022/01/30 10:30:54;;;;;;;;;5.50;2.50;;;;;10.23;62.98;102589.72;4954993;28;46536;-81
2022/01/30 10:33:22;;;;;;;;;3.00;2.25;;;;;10.21;62.57;102587.16;4954746;28;47076;-78
2022/01/30 10:35:56;;;;;;;;;3.00;2.25;;;;;10.26;62.81;102593.06;4954653;28;45618;-77
2022/01/30 10:38:27;;;;;;;;;4.00;2.00;;;;;10.25;62.62;102593.16;4955105;28;45577;-79
2022/01/30 10:40:55;;;;;;;;;4.00;2.25;;;;;10.23;62.73;102584.47;4954697;28;47193;-78
2022/01/30 10:43:20;;;;;;;;;2.00;2.00;;;;;10.31;62.53;102598.16;4955112;28;45970;-79
2022/01/30 10:45:46;;;;;;;;;4.00;2.75;;;;;10.32;62.47;102586.72;4955053;28;46035;-80
2022/01/30 10:48:21;;;;;;;;;3.25;2.00;;;;;10.33;62.40;102584.06;4956074;28;45561;-77
2022/01/30 10:50:48;;;;;;;;;7.75;3.00;;;;;10.38;62.40;102592.59;5028603;28;46916;-80
2022/01/30 10:53:19;;;;;;;;;3.75;2.00;;;;;10.39;62.45;102596.94;5035964;28;46026;-77
2022/01/30 10:55:46;;;;;;;;;5.50;3.75;;;;;10.40;62.30;102597.78;5035927;28;45544;-78
2022/01/30 10:58:17;;;;;;;;;2.75;1.00;;;;;10.37;62.27;102590.03;5036006;28;45564;-80
2022/01/30 11:00:54;;;;;;;;;4.00;3.00;;;;;10.40;62.27;102592.56;5035734;28;45513;-80
2022/01/30 11:03:36;;;;;;;;;2.50;2.50;;;;;10.40;62.33;102588.16;5035509;28;46039;-79
2022/01/30 11:06:03;;;;;;;;;2.25;1.75;;;;;10.40;62.21;102582.94;5035909;28;45662;-78
2022/01/30 11:08:31;;;;;;;;;3.75;3.00;;;;;10.40;62.10;102585.56;5035888;28;45580;-78
2022/01/30 11:11:46;;;;;;;;;3.25;1.75;;;;;10.43;62.10;102589.78;5035695;28;45494;-78
2022/01/30 11:19:15;;;;;;;;;3.00;2.00;;;;;10.47;62.48;102578.31;5034984;28;45633;-77
2022/01/30 11:21:42;;;;;;;;;6.50;4.00;;;;;10.47;62.02;102570.44;5035270;28;46444;-77
2022/01/30 11:24:13;;;;;;;;;4.00;3.00;;;;;10.55;61.97;102570.97;5035580;28;46561;-79
2022/01/30 11:26:42;;;;;;;;;3.75;3.00;;;;;10.60;61.78;102570.78;5035660;28;45495;-78
2022/01/30 11:29:14;;;;;;;;;5.00;2.50;;;;;10.61;61.72;102570.75;5035630;28;45731;-80
2022/01/30 11:31:41;;;;;;;;;3.00;3.00;;;;;10.52;61.62;102534.44;5034282;28;45626;-78
2022/01/30 11:34:07;;;;;;;;;5.50;4.00;;;;;10.66;61.70;102546.97;5016824;28;46094;-79
2022/01/30 11:36:37;;;;;;;;;7.00;4.00;;;;;10.70;61.58;102544.16;5035393;28;45758;-79
2022/01/30 11:39:07;;;;;;;;;6.00;3.25;;;;;10.77;61.64;102550.88;5035168;28;45684;-79
2022/01/30 11:41:35;;;;;;;;;8.50;4.50;;;;;10.81;61.37;102544.56;5035308;28;45740;-77
2022/01/30 11:44:25;;;;;;;;;12.25;6.25;;;;;10.84;61.47;102547.09;5033648;28;46381;-79
2022/01/30 11:47:03;;;;;;;;;5.50;4.50;;;;;10.87;61.39;102543.47;5051845;28;45752;-79
2022/01/30 11:49:48;;;;;;;;;4.50;4.50;;;;;10.89;61.31;102534.63;5055436;28;45737;-79
2022/01/30 11:52:16;;;;;;;;;5.75;4.00;;;;;10.91;61.22;102527.53;5054983;28;47493;-78
2022/01/30 11:54:45;;;;;;;;;5.00;4.00;;;;;10.82;60.94;102517.44;5053316;28;45962;-79
2022/01/30 11:57:22;;;;;;;;;5.75;4.00;;;;;10.92;61.19;102523.16;5055309;28;45728;-79
2022/01/30 11:59:55;;;;;;;;;9.50;7.00;;;;;10.89;61.17;102520.66;5055133;28;45720;-80
2022/01/30 12:02:33;;;;;;;;;8.25;7.00;;;;;10.91;61.11;102516.19;5054744;28;45905;-78
2022/01/30 12:05:10;;;;;;;;;8.75;7.75;;;;;10.92;61.17;102523.16;5070418;28;47514;-81
2022/01/30 12:07:41;;;;;;;;;4.00;4.00;;;;;10.89;61.17;102518.91;5054909;28;45468;-79
2022/01/30 12:10:15;;;;;;;;;9.00;6.75;;;;;10.92;61.09;102513.53;5053459;28;45843;-78
2022/01/30 12:13:01;;;;;;;;;7.00;5.00;;;;;10.91;61.03;102510.94;5055058;28;46564;-77
2022/01/30 12:15:38;;;;;;;;;9.50;7.50;;;;;10.93;60.99;102515.22;5054929;28;46532;-77
2022/01/30 12:18:05;;;;;;;;;6.50;6.00;;;;;10.97;60.94;102515.09;5054587;28;45747;-77
2022/01/30 12:20:54;;;;;;;;;4.00;1.25;;;;;10.88;60.90;102487.50;5054794;28;45909;-79
2022/01/30 12:23:28;;;;;;;;;6.50;5.00;;;;;11.04;60.67;102501.66;5054264;28;47229;-79
2022/01/30 12:25:58;;;;;;;;;8.25;6.00;;;;;11.06;60.78;102494.59;5054634;28;46156;-79
2022/01/30 12:28:54;;;;;;;;;7.25;4.00;;;;;11.10;60.56;102490.06;5054747;28;45710;-79
2022/01/30 12:31:38;;;;;;;;;21.75;18.50;;;;;11.13;60.65;102484.66;5054641;28;45676;-78
2022/01/30 12:37:32;;;;;;;;;6.00;4.50;;;;;11.21;60.60;102467.69;5054360;28;46077;-78
2022/01/30 12:40:03;;;;;;;;;6.75;2.25;;;;;11.22;60.32;102466.78;5054385;28;45790;-78
2022/01/30 12:42:32;;;;;;;;;6.00;4.00;;;;;11.25;60.03;102455.28;5054311;28;45622;-78
2022/01/30 12:45:02;;;;;;;;;5.50;4.00;;;;;11.21;59.91;102443.22;5053835;28;46437;-78
2022/01/30 12:47:28;;;;;;;;;9.00;7.75;;;;;11.29;59.91;102455.06;5054089;28;46046;-79
2022/01/30 12:53:15;;;;;;;;;5.75;4.00;;;;;11.32;59.50;102440.97;5053989;28;45605;-79
2022/01/30 12:55:41;;;;;;;;;6.50;4.75;;;;;11.27;59.38;102429.84;5054348;28;46232;-78
2022/01/30 12:58:06;;;;;;;;;9.50;8.00;;;;;11.33;59.42;102432.19;5054100;28;46387;-79
2022/01/30 13:00:32;;;;;;;;;7.25;7.25;;;;;10.97;59.14;102370.84;5054009;28;45771;-79
2022/01/30 13:03:00;;;;;;;;;7.75;6.75;;;;;11.23;59.09;102413.34;5054427;28;45794;-79
2022/01/30 13:08:54;;;;;;;;;5.00;5.00;;;;;11.29;58.92;102401.72;5053774;28;46070;-80
2022/01/30 13:11:20;;;;;;;;;7.00;6.00;;;;;11.33;59.02;102400.69;5054194;28;45691;-80
2022/01/30 13:14:06;;;;;;;;;7.50;4.50;;;;;11.18;58.96;102381.22;5054322;28;45723;-79
2022/01/30 13:16:35;;;;;;;;;6.75;4.00;;;;;11.20;58.71;102382.03;5054116;28;45522;-79
2022/01/30 13:19:05;;;;;;;;;5.25;5.00;;;;;11.30;58.76;102388.56;5053605;28;46266;-78
2022/01/30 13:21:33;;;;;;;;;8.75;5.25;;;;;11.27;58.54;102375.59;5052580;28;45717;-78
2022/01/30 13:24:00;;;;;;;;;6.25;4.00;;;;;11.27;58.60;102361.63;5054149;28;45574;-80
2022/01/30 13:26:31;;;;;;;;;8.25;7.00;;;;;11.39;58.85;102365.44;5054116;28;46557;-77